Hoogeveen, Netherlands
Current Conditions -  °F | °C
As of 7:55 AM on Friday 19 Dec 2014 (Local Time) from EHGG Reporting Station
Light Rain Light Rain  
Wind Chill: 52°   Ceiling: 800
Heat Index: 52°   Visibility: 2.5mi
Dew Point: 52°   Wind: 21mph
Humidity: 100%   Direction: 240°WSW
Pressure: 29.59"   Gusts: 32mph
Location:  52.73°N, 6.52°E
Report Text: EHGG 190655Z AUTO 24018G28KT 4100 -RA SCT006 BKN008 BKN009BKN015CB 11/11 Q1002 TEMPO 3000 RADZ BKN005 BECMG 28016KT SCT020
Loading
Personal Weather Stations






























Interactive Weather Map New forecast layout! Learn more

10-Day Weather Forecast

Advertisements
Track Severe Weather on mobile